»·PEaware :: SWA1 KSAN-KSLC

SWA1 :: KSAN-KSLC

FLIGHT INFORMATION

Flight Status: Arrived
Operator:
Southwest Airlines
More flights by this operator :: More flights under this callsign
Pilot: Maximilliano F. (23467)
Aircraft: BOEING 737-800
(B738)
More flights by this aircraft type
Origin: KSAN San Diego Intl-Lindbergh
United States
Destination: KSLC Salt Lake City Intl
United States
More flights between these airports :: More routes between these airports
Route: ZZOOO2 MTBAL CADEZ HAKMN Q73 LAKRR MLF DELTA5
File this flight plan on PilotEdge
Remarks: RMK / SIMBRIEF
Altitude:
(Current/Filed)
35,000ft
Speed:
(Current/Filed)
465kts
Departed: 03-Nov-19 05:27 PM
Arrived: 03-Nov-19 07:02 PM
Distance/Time
Traveled:
544nm/1:35
Distance/Time
To Go:
Arrived

Flight Plot

Page will automatically refresh every two minutes.

Flight plan parsing failed; only flown route is shown


Map Options




Map Legend


Flown Route
Filed Route
Departure Airport
Arrival Airport
Navaid (VOR, NDB)
Fix

Horizontal Profiles

Position Reports

Time Latitude Longitude Heading Altitude Ground
Speed
03-Nov-19 16:52 32.731852 -117.195861 247 21ft 0kts
03-Nov-19 16:53 32.731852 -117.195861 247 21ft 0kts
03-Nov-19 16:54 32.731852 -117.195861 247 21ft 0kts
03-Nov-19 16:55 32.731852 -117.195861 247 21ft 0kts
03-Nov-19 16:56 32.731852 -117.195861 247 21ft 0kts
03-Nov-19 16:57 32.731852 -117.195861 247 21ft 0kts
03-Nov-19 16:58 32.731852 -117.195861 247 21ft 0kts
03-Nov-19 16:59 32.731852 -117.195861 247 21ft 0kts
03-Nov-19 17:00 32.731852 -117.195861 247 21ft 0kts
03-Nov-19 17:01 32.731852 -117.195861 247 21ft 0kts
03-Nov-19 17:02 32.731852 -117.195861 247 21ft 0kts
03-Nov-19 17:03 32.731852 -117.195861 247 21ft 0kts
03-Nov-19 17:04 32.731852 -117.195861 247 21ft 0kts
03-Nov-19 17:05 32.731852 -117.195861 247 21ft 0kts
03-Nov-19 17:06 32.731852 -117.195861 247 21ft 0kts
03-Nov-19 17:07 32.731852 -117.195861 247 21ft 0kts
03-Nov-19 17:08 32.731852 -117.195861 247 21ft 0kts
03-Nov-19 17:09 32.731852 -117.195861 247 21ft 0kts
03-Nov-19 17:10 32.731886 -117.195769 248 21ft 2kts
03-Nov-19 17:11 32.731666 -117.195264 345 21ft 1kts
03-Nov-19 17:12 32.731614 -117.195250 344 21ft 0kts
03-Nov-19 17:13 32.731615 -117.195250 344 21ft 0kts
03-Nov-19 17:14 32.731615 -117.195250 344 21ft 0kts
03-Nov-19 17:15 32.732196 -117.194923 15 21ft 0kts
03-Nov-19 17:16 32.732782 -117.194465 32 21ft 0kts
03-Nov-19 17:17 32.732782 -117.194465 32 21ft 0kts
03-Nov-19 17:18 32.733301 -117.192888 106 21ft 11kts
03-Nov-19 17:19 32.732153 -117.188148 105 20ft 14kts
03-Nov-19 17:20 32.731109 -117.183827 105 19ft 14kts
03-Nov-19 17:21 32.729976 -117.179178 105 21ft 15kts
03-Nov-19 17:22 32.729513 -117.176724 74 23ft 0kts
03-Nov-19 17:23 32.729513 -117.176724 74 23ft 0kts
03-Nov-19 17:24 32.729513 -117.176724 74 23ft 0kts
03-Nov-19 17:25 32.729642 -117.176226 71 25ft 7kts
03-Nov-19 17:26 32.732245 -117.184260 285 20ft 118kts
03-Nov-19 17:27 32.745273 -117.240262 283 1869ft 203kts
03-Nov-19 17:28 32.750268 -117.314456 228 4060ft 261kts
03-Nov-19 17:29 32.684843 -117.301395 138 7036ft 279kts
03-Nov-19 17:30 32.634883 -117.229803 111 9956ft 289kts
03-Nov-19 17:31 32.620849 -117.127041 96 11788ft 335kts
03-Nov-19 17:32 32.610817 -117.014559 96 14425ft 352kts
03-Nov-19 17:33 32.606594 -116.895690 80 16954ft 370kts
03-Nov-19 17:34 32.643927 -116.780541 46 19209ft 388kts
03-Nov-19 17:35 32.739612 -116.719630 20 21285ft 403kts
03-Nov-19 17:36 32.845334 -116.668065 20 23236ft 419kts
03-Nov-19 17:37 32.954446 -116.614553 19 25044ft 433kts
03-Nov-19 17:38 33.067144 -116.557524 21 26724ft 447kts
03-Nov-19 17:40 33.178274 -116.499249 20 28174ft 460kts
03-Nov-19 17:41 33.300036 -116.435425 20 29597ft 473kts
03-Nov-19 17:42 33.411510 -116.350767 43 31268ft 481kts
03-Nov-19 17:43 33.493412 -116.226778 54 32979ft 478kts
03-Nov-19 17:44 33.570146 -116.098162 53 34623ft 471kts
03-Nov-19 17:45 33.657816 -115.979464 42 34999ft 485kts
03-Nov-19 17:46 33.754751 -115.868183 42 35001ft 479kts
03-Nov-19 17:47 33.851015 -115.757028 42 35003ft 481kts
03-Nov-19 17:48 33.947341 -115.645439 42 35004ft 482kts
03-Nov-19 17:49 34.043415 -115.533776 42 35003ft 477kts
03-Nov-19 17:50 34.137659 -115.423889 42 35012ft 476kts
03-Nov-19 17:51 34.247078 -115.341926 16 35036ft 468kts
03-Nov-19 17:52 34.372237 -115.309749 6 35034ft 463kts
03-Nov-19 17:53 34.498994 -115.284506 6 35034ft 461kts
03-Nov-19 17:54 34.625062 -115.259210 6 35035ft 460kts
03-Nov-19 17:55 34.750886 -115.233887 7 35034ft 458kts
03-Nov-19 17:56 34.876086 -115.208609 7 35020ft 456kts
03-Nov-19 17:57 35.000686 -115.183379 7 35016ft 455kts
03-Nov-19 17:58 35.124163 -115.158297 8 35011ft 453kts
03-Nov-19 17:58 35.227373 -115.137273 8 35008ft 451kts
03-Nov-19 18:00 35.371364 -115.107856 8 35005ft 450kts
03-Nov-19 18:01 35.491258 -115.066862 26 35046ft 451kts
03-Nov-19 18:01 35.573698 -114.989037 45 35052ft 452kts
03-Nov-19 18:02 35.658229 -114.874516 47 35045ft 452kts
03-Nov-19 18:04 35.755969 -114.740690 47 35046ft 452kts
03-Nov-19 18:04 35.825883 -114.644796 47 35046ft 452kts
03-Nov-19 18:05 35.909557 -114.529663 47 35049ft 450kts
03-Nov-19 18:06 35.992822 -114.414700 47 35054ft 449kts
03-Nov-19 18:07 36.077618 -114.303768 37 35067ft 445kts
03-Nov-19 18:08 36.185581 -114.231511 23 35065ft 446kts
03-Nov-19 18:09 36.298875 -114.170068 23 35082ft 445kts
03-Nov-19 18:10 36.411449 -114.108696 23 35101ft 443kts
03-Nov-19 18:11 36.524030 -114.047128 23 35113ft 442kts
03-Nov-19 18:12 36.636203 -113.985585 23 35095ft 441kts
03-Nov-19 18:13 36.748463 -113.923785 23 35090ft 441kts
03-Nov-19 18:14 36.860190 -113.862096 22 35090ft 439kts
03-Nov-19 18:15 36.971254 -113.800577 22 35090ft 436kts
03-Nov-19 18:16 37.081518 -113.739306 22 35089ft 434kts
03-Nov-19 18:17 37.191346 -113.678082 22 35112ft 433kts
03-Nov-19 18:18 37.300895 -113.616818 23 35146ft 430kts
03-Nov-19 18:19 37.409844 -113.555698 23 35146ft 429kts
03-Nov-19 18:20 37.518388 -113.494615 23 35146ft 427kts
03-Nov-19 18:21 37.625751 -113.433995 22 35145ft 426kts
03-Nov-19 18:22 37.733053 -113.373224 23 35145ft 427kts
03-Nov-19 18:23 37.840754 -113.311997 23 35140ft 427kts
03-Nov-19 18:24 37.949088 -113.250246 23 35135ft 427kts
03-Nov-19 18:25 38.056522 -113.188788 23 35131ft 419kts
03-Nov-19 18:26 38.160992 -113.128859 23 35140ft 421kts
03-Nov-19 18:27 38.267718 -113.067433 23 35138ft 420kts
03-Nov-19 18:28 38.373914 -113.006241 22 35140ft 420kts
03-Nov-19 18:29 38.481259 -112.948900 21 35143ft 420kts
03-Nov-19 18:30 38.588786 -112.891509 20 35147ft 419kts
03-Nov-19 18:31 38.696184 -112.834003 20 35151ft 420kts
03-Nov-19 18:32 38.803329 -112.776437 20 35153ft 419kts
03-Nov-19 18:33 38.910471 -112.718532 20 35152ft 418kts
03-Nov-19 18:34 39.019259 -112.659701 20 35153ft 435kts
03-Nov-19 18:35 39.122957 -112.603408 20 35157ft 430kts
03-Nov-19 18:36 39.229602 -112.545333 20 34498ft 426kts
03-Nov-19 18:37 39.338665 -112.493219 11 30700ft 410kts
03-Nov-19 18:38 39.448409 -112.457203 11 28730ft 418kts
03-Nov-19 18:39 39.557090 -112.421041 11 26706ft 392kts
03-Nov-19 18:40 39.659415 -112.386938 10 24780ft 372kts
03-Nov-19 18:41 39.762606 -112.352452 10 22653ft 381kts
03-Nov-19 18:42 39.862380 -112.318950 10 20650ft 360kts
03-Nov-19 18:43 39.958174 -112.286814 10 18734ft 368kts
03-Nov-19 18:44 40.054526 -112.254225 9 17039ft 350kts
03-Nov-19 18:45 40.149819 -112.221895 10 16983ft 356kts
03-Nov-19 18:46 40.242165 -112.190526 10 15249ft 336kts
03-Nov-19 18:47 40.332439 -112.159833 10 14011ft 343kts
03-Nov-19 18:48 40.424756 -112.128313 10 13979ft 341kts
03-Nov-19 18:49 40.514062 -112.097870 10 12898ft 341kts
03-Nov-19 18:50 40.605012 -112.079860 359 11604ft 328kts
03-Nov-19 18:51 40.694357 -112.085112 352 10995ft 303kts
03-Nov-19 18:52 40.766173 -112.093553 351 11004ft 234kts
03-Nov-19 18:53 40.831190 -112.101378 351 10996ft 233kts
03-Nov-19 18:54 40.896210 -112.110392 351 9764ft 237kts
03-Nov-19 18:55 40.961610 -112.121603 359 8544ft 237kts
03-Nov-19 18:56 40.985457 -112.056287 121 7170ft 234kts
03-Nov-19 18:57 40.934090 -112.014584 168 6334ft 203kts
03-Nov-19 18:58 40.882629 -112.008028 174 5727ft 182kts
03-Nov-19 18:59 40.833477 -112.002256 175 4770ft 160kts
03-Nov-19 19:00 40.792873 -111.997561 174 4235ft 79kts
03-Nov-19 19:01 40.787508 -111.995824 132 4235ft 0kts
03-Nov-19 19:02 40.787507 -111.995823 132 4235ft 0kts
03-Nov-19 19:03 40.787808 -111.994800 0 4235ft 10kts
03-Nov-19 19:04 40.791769 -111.995238 354 4235ft 14kts

Navigation Log

Ident Type
Flight plan parsing failed, navigation log unavailable